Time;durP1;ratioP1;P1;durP2;ratioP2;P2;SDS_P1;SDS_P2;PMS_P1;PMS_P2;Temp;Humidity;BMP_temperature;BMP_pressure;BME280_temperature;BME280_humidity;BME280_pressure;Samples;Min_cycle;Max_cycle;Signal;HPM_P1;HPM_P2
2022/03/01 00:01:58;;;;;;;27.92;16.15;;;5.30;99.90;;;;;;5054425;28;20406;-54
2022/03/01 00:04:23;;;;;;;26.80;15.82;;;5.30;99.90;;;;;;5053870;28;20025;-54
2022/03/01 00:06:49;;;;;;;31.40;16.38;;;5.30;99.90;;;;;;5053418;28;20425;-54
2022/03/01 00:09:14;;;;;;;30.70;16.50;;;5.30;99.90;;;;;;5053984;28;20029;-54
2022/03/01 00:11:40;;;;;;;27.38;16.45;;;5.30;99.90;;;;;;5053182;28;20112;-54
2022/03/01 00:14:06;;;;;;;31.15;17.77;;;5.20;99.90;;;;;;5055035;28;20083;-54
2022/03/01 00:16:33;;;;;;;28.90;16.27;;;5.20;99.90;;;;;;5055447;28;20075;-54
2022/03/01 00:18:59;;;;;;;28.05;15.85;;;5.20;99.90;;;;;;5054420;28;20548;-53
2022/03/01 00:21:28;;;;;;;31.90;17.88;;;5.20;99.90;;;;;;5054526;28;20029;-54
2022/03/01 00:23:55;;;;;;;31.50;18.23;;;5.10;99.90;;;;;;5055058;28;20025;-54
2022/03/01 00:26:21;;;;;;;36.05;19.23;;;5.10;99.90;;;;;;5054786;28;20526;-54
2022/03/01 00:28:47;;;;;;;31.25;17.70;;;5.00;99.90;;;;;;5054520;28;20486;-54
2022/03/01 00:31:12;;;;;;;34.90;19.38;;;5.10;99.90;;;;;;5054109;28;20045;-54
2022/03/01 00:33:38;;;;;;;33.55;19.27;;;5.10;99.90;;;;;;5054814;28;20020;-54
2022/03/01 00:36:04;;;;;;;39.97;20.95;;;5.20;99.90;;;;;;5053917;28;20610;-54
2022/03/01 00:38:30;;;;;;;39.40;21.52;;;5.30;99.90;;;;;;5054081;28;20529;-54
2022/03/01 00:40:56;;;;;;;40.15;20.67;;;5.40;99.90;;;;;;5053398;28;20486;-54
2022/03/01 00:43:22;;;;;;;37.17;19.67;;;5.50;99.90;;;;;;5053961;28;20028;-54
2022/03/01 00:45:52;;;;;;;36.40;20.10;;;5.50;99.90;;;;;;5054111;28;20029;-54
2022/03/01 00:48:19;;;;;;;34.75;19.73;;;5.50;99.90;;;;;;5054054;28;20028;-54
2022/03/01 00:50:45;;;;;;;34.78;19.73;;;5.40;99.90;;;;;;5054102;28;20021;-54
2022/03/01 00:53:11;;;;;;;34.38;18.85;;;5.50;99.90;;;;;;5053806;28;20017;-54
2022/03/01 00:55:36;;;;;;;36.70;19.02;;;5.50;99.90;;;;;;5054122;28;20108;-54
2022/03/01 00:58:02;;;;;;;40.00;19.90;;;5.50;99.90;;;;;;5054427;28;20033;-54
2022/03/01 01:00:28;;;;;;;41.15;20.40;;;5.50;99.90;;;;;;5053297;28;20025;-54
2022/03/01 01:02:54;;;;;;;35.05;19.98;;;5.50;99.90;;;;;;5053090;28;20387;-54
2022/03/01 01:05:20;;;;;;;37.28;19.67;;;5.40;99.90;;;;;;5052658;28;20025;-54
2022/03/01 01:07:46;;;;;;;37.30;19.92;;;5.30;99.90;;;;;;5053324;28;20378;-54
2022/03/01 01:10:12;;;;;;;39.90;20.83;;;5.30;99.90;;;;;;5053500;28;20111;-54
2022/03/01 01:12:39;;;;;;;40.83;20.88;;;5.20;99.90;;;;;;5052900;28;20017;-55
2022/03/01 01:15:06;;;;;;;41.28;21.45;;;5.20;99.90;;;;;;5053207;28;20462;-55
2022/03/01 01:17:31;;;;;;;37.75;21.27;;;5.30;99.90;;;;;;5052935;28;20025;-54
2022/03/01 01:19:57;;;;;;;43.55;22.15;;;5.20;99.90;;;;;;5053698;28;20029;-54
2022/03/01 01:25:23;;;;;;;44.70;22.73;;;5.20;99.90;;;;;;5052684;28;20053;-54
2022/03/01 01:27:52;;;;;;;44.92;23.58;;;5.10;99.90;;;;;;5053281;28;20104;-54
2022/03/01 01:30:21;;;;;;;43.10;21.45;;;5.10;99.90;;;;;;5053532;28;20465;-54
2022/03/01 01:32:48;;;;;;;41.15;21.88;;;5.10;99.90;;;;;;5053512;28;20029;-54
2022/03/01 01:35:15;;;;;;;45.63;22.85;;;5.10;99.90;;;;;;5052925;28;20029;-54
2022/03/01 01:37:41;;;;;;;46.03;23.30;;;5.10;99.90;;;;;;5053537;28;20029;-54
2022/03/01 01:40:10;;;;;;;45.22;22.98;;;5.00;99.90;;;;;;5053208;28;20025;-54
2022/03/01 01:42:36;;;;;;;57.47;32.63;;;5.10;99.90;;;;;;5053213;28;20071;-55
2022/03/01 01:45:03;;;;;;;53.90;27.85;;;5.00;99.90;;;;;;5053253;28;20025;-54
2022/03/01 01:47:29;;;;;;;48.88;26.17;;;5.00;99.90;;;;;;5052643;28;20506;-55
2022/03/01 01:49:55;;;;;;;49.25;25.58;;;4.90;99.90;;;;;;5053180;28;20096;-54
2022/03/01 01:52:20;;;;;;;49.40;24.75;;;4.80;99.90;;;;;;5053188;28;20025;-54
2022/03/01 01:54:47;;;;;;;52.63;25.90;;;4.80;99.90;;;;;;5051851;28;20017;-54
2022/03/01 01:57:20;;;;;;;48.20;25.35;;;4.80;99.90;;;;;;5052528;28;20040;-54
2022/03/01 01:59:48;;;;;;;44.55;24.30;;;4.80;99.90;;;;;;5052410;28;20069;-54
2022/03/01 02:02:17;;;;;;;44.55;24.02;;;4.90;99.90;;;;;;5050541;28;20460;-54
2022/03/01 02:04:43;;;;;;;47.38;24.55;;;5.00;99.90;;;;;;5052259;28;20029;-54
2022/03/01 02:07:10;;;;;;;46.30;23.17;;;5.00;99.90;;;;;;5051512;28;20355;-54
2022/03/01 02:09:36;;;;;;;45.35;24.30;;;5.00;99.90;;;;;;5052303;28;20032;-55
2022/03/01 02:12:05;;;;;;;45.35;23.40;;;5.00;99.90;;;;;;5051943;28;20021;-54
2022/03/01 02:14:31;;;;;;;42.15;23.88;;;5.00;99.90;;;;;;5051932;28;20106;-54
2022/03/01 02:17:00;;;;;;;42.75;23.60;;;4.90;99.90;;;;;;5051834;28;20532;-54
2022/03/01 02:19:26;;;;;;;43.78;23.08;;;4.80;99.90;;;;;;5052046;28;20033;-54
2022/03/01 02:21:57;;;;;;;46.85;23.65;;;4.80;99.90;;;;;;5051480;28;20442;-54
2022/03/01 02:24:25;;;;;;;46.90;23.75;;;4.80;99.90;;;;;;5051649;28;20029;-54
2022/03/01 02:27:02;;;;;;;45.97;23.95;;;4.70;99.90;;;;;;5051782;28;20099;-54
2022/03/01 02:29:28;;;;;;;46.08;23.15;;;4.80;99.90;;;;;;5051124;28;20021;-54
2022/03/01 02:31:55;;;;;;;44.00;23.02;;;4.80;99.90;;;;;;5051499;28;20124;-54
2022/03/01 02:34:23;;;;;;;47.50;23.42;;;4.70;99.90;;;;;;5052427;28;20025;-54
2022/03/01 02:36:49;;;;;;;42.92;22.35;;;4.60;99.90;;;;;;5052574;28;20445;-55
2022/03/01 02:39:15;;;;;;;47.70;23.98;;;4.60;99.90;;;;;;5052152;28;20074;-54
2022/03/01 02:41:44;;;;;;;49.20;23.70;;;4.60;99.90;;;;;;5051943;28;20417;-54
2022/03/01 02:44:11;;;;;;;50.03;25.73;;;4.60;99.90;;;;;;5052282;28;20027;-54
2022/03/01 02:46:37;;;;;;;53.67;26.27;;;4.60;99.90;;;;;;5051945;28;20064;-54
2022/03/01 02:49:05;;;;;;;55.00;27.05;;;4.50;99.90;;;;;;5051328;28;20029;-54
2022/03/01 02:51:30;;;;;;;53.88;27.35;;;4.60;99.90;;;;;;5051147;28;20036;-54
2022/03/01 02:53:56;;;;;;;52.40;27.42;;;4.60;99.90;;;;;;5050838;28;20025;-54
2022/03/01 02:56:22;;;;;;;53.35;27.88;;;4.60;99.90;;;;;;5050613;28;20518;-54
2022/03/01 02:58:48;;;;;;;59.97;30.30;;;4.60;99.90;;;;;;5051373;28;20048;-54
2022/03/01 03:01:14;;;;;;;57.80;29.25;;;4.60;99.90;;;;;;5051137;28;20458;-54
2022/03/01 03:03:39;;;;;;;56.28;27.48;;;4.70;99.90;;;;;;5050744;28;20032;-54
2022/03/01 03:06:05;;;;;;;56.97;28.13;;;4.80;99.90;;;;;;5050602;28;20378;-54
2022/03/01 03:08:32;;;;;;;59.03;27.77;;;4.80;99.90;;;;;;5050645;28;20524;-54
2022/03/01 03:10:58;;;;;;;59.70;29.85;;;4.80;99.90;;;;;;5050638;28;20105;-54
2022/03/01 03:13:24;;;;;;;58.83;30.30;;;4.90;99.90;;;;;;5050976;28;20061;-54
2022/03/01 03:15:50;;;;;;;56.83;29.25;;;4.90;99.90;;;;;;5051031;28;20039;-54
2022/03/01 03:18:17;;;;;;;57.03;29.25;;;5.00;99.90;;;;;;5051025;28;20104;-54
2022/03/01 03:20:43;;;;;;;58.33;29.40;;;5.00;99.90;;;;;;5051004;28;20108;-55
2022/03/01 03:23:09;;;;;;;56.72;28.83;;;5.00;99.90;;;;;;5051136;28;20586;-54
2022/03/01 03:25:35;;;;;;;52.78;27.63;;;5.00;99.90;;;;;;5051110;28;20039;-54
2022/03/01 03:28:01;;;;;;;53.35;27.55;;;5.00;99.90;;;;;;5053957;28;20096;-54
2022/03/01 03:30:26;;;;;;;59.67;28.40;;;5.00;99.90;;;;;;5054594;28;20074;-54
2022/03/01 03:32:53;;;;;;;50.65;26.48;;;5.00;99.90;;;;;;5054877;28;20033;-54
2022/03/01 03:35:18;;;;;;;54.60;26.52;;;4.90;99.90;;;;;;5055071;28;20033;-54
2022/03/01 03:37:44;;;;;;;57.13;27.73;;;4.90;99.90;;;;;;5055061;28;20439;-54
2022/03/01 03:40:10;;;;;;;56.00;26.58;;;5.00;99.90;;;;;;5054762;28;20024;-54
2022/03/01 03:42:36;;;;;;;49.10;25.50;;;5.00;99.90;;;;;;5054437;28;20021;-54
2022/03/01 03:45:03;;;;;;;53.65;26.50;;;5.10;99.90;;;;;;5055623;28;20017;-54
2022/03/01 03:47:28;;;;;;;47.38;24.75;;;5.00;99.90;;;;;;5054128;28;20025;-54
2022/03/01 03:49:54;;;;;;;50.67;24.30;;;5.10;99.90;;;;;;5054116;28;20023;-54
2022/03/01 03:52:19;;;;;;;44.45;23.20;;;5.00;99.90;;;;;;5053772;28;20044;-54
2022/03/01 03:54:45;;;;;;;42.80;23.02;;;5.00;99.90;;;;;;5054403;28;20028;-54
2022/03/01 03:57:11;;;;;;;44.60;22.42;;;5.00;99.90;;;;;;5052671;28;20031;-54
2022/03/01 03:59:38;;;;;;;41.03;21.45;;;4.90;99.90;;;;;;5054029;28;20120;-54
2022/03/01 04:02:05;;;;;;;39.63;21.30;;;4.90;99.90;;;;;;5054315;28;20537;-54
2022/03/01 04:04:31;;;;;;;37.42;19.60;;;4.90;99.90;;;;;;5054582;28;20513;-54
2022/03/01 04:06:57;;;;;;;36.22;20.00;;;5.10;99.90;;;;;;5053831;28;20035;-54
2022/03/01 04:09:23;;;;;;;34.17;18.88;;;5.10;99.90;;;;;;5057206;28;20033;-54
2022/03/01 04:11:49;;;;;;;32.67;17.67;;;5.20;99.90;;;;;;5063528;28;20021;-54
2022/03/01 04:14:14;;;;;;;31.65;16.92;;;5.20;99.90;;;;;;5065811;28;20029;-55
2022/03/01 04:16:42;;;;;;;30.95;16.48;;;5.20;99.90;;;;;;5066549;28;20108;-54
2022/03/01 04:19:09;;;;;;;29.60;16.73;;;5.10;99.90;;;;;;5067712;28;20021;-54
2022/03/01 04:21:35;;;;;;;30.48;15.68;;;5.10;99.90;;;;;;5066802;28;20021;-55
2022/03/01 04:24:00;;;;;;;27.02;16.77;;;5.20;99.90;;;;;;5067493;28;20021;-54
2022/03/01 04:26:26;;;;;;;30.85;16.05;;;5.20;99.90;;;;;;5067727;28;20044;-54
2022/03/01 04:28:51;;;;;;;28.73;16.70;;;5.30;99.90;;;;;;5067683;28;20025;-55
2022/03/01 04:31:17;;;;;;;27.83;16.02;;;5.30;99.90;;;;;;5067245;28;20099;-55
2022/03/01 04:33:43;;;;;;;26.08;15.27;;;5.30;99.90;;;;;;5067630;28;20074;-54
2022/03/01 04:36:08;;;;;;;27.98;16.15;;;5.40;99.90;;;;;;5067473;28;20025;-55
2022/03/01 04:38:35;;;;;;;30.88;16.88;;;5.40;99.90;;;;;;5067206;28;20085;-54
2022/03/01 04:41:01;;;;;;;27.23;16.20;;;5.40;99.90;;;;;;5066842;28;20051;-55
2022/03/01 04:43:26;;;;;;;27.98;15.55;;;5.40;99.90;;;;;;5066783;28;20021;-55
2022/03/01 04:45:52;;;;;;;26.05;15.23;;;5.50;99.90;;;;;;5065844;28;20027;-54
2022/03/01 04:48:18;;;;;;;27.08;15.07;;;5.50;99.90;;;;;;5066063;28;20048;-54
2022/03/01 04:50:43;;;;;;;29.05;16.17;;;5.50;99.90;;;;;;5066037;28;20025;-55
2022/03/01 04:53:10;;;;;;;29.73;16.58;;;5.60;99.90;;;;;;5065567;28;20048;-55
2022/03/01 04:55:37;;;;;;;28.65;16.25;;;5.60;99.90;;;;;;5065851;28;20021;-54
2022/03/01 04:58:02;;;;;;;27.73;15.27;;;5.60;99.90;;;;;;5067455;28;20410;-55
2022/03/01 05:00:28;;;;;;;27.80;15.52;;;5.50;99.90;;;;;;5066941;28;20169;-55
2022/03/01 05:02:54;;;;;;;26.00;15.70;;;5.50;99.90;;;;;;5066883;28;20036;-55
2022/03/01 05:05:19;;;;;;;29.05;15.77;;;5.50;99.90;;;;;;5065931;28;20448;-58
2022/03/01 05:07:47;;;;;;;27.58;16.17;;;5.50;99.90;;;;;;5066023;28;20037;-54
2022/03/01 05:10:18;;;;;;;30.92;16.80;;;5.40;99.90;;;;;;5066920;28;20043;-54
2022/03/01 05:12:53;;;;;;;28.05;15.05;;;5.30;99.90;;;;;;5065672;28;20017;-55
2022/03/01 05:15:20;;;;;;;25.33;15.45;;;5.40;99.90;;;;;;5065776;28;20021;-55
2022/03/01 05:17:47;;;;;;;26.77;14.93;;;5.40;99.90;;;;;;5066207;28;20021;-54
2022/03/01 05:20:14;;;;;;;27.73;15.32;;;5.40;99.90;;;;;;5065576;28;20047;-55
2022/03/01 05:22:40;;;;;;;26.92;15.65;;;5.40;99.90;;;;;;5066286;28;20025;-58
2022/03/01 05:25:11;;;;;;;29.23;15.35;;;5.40;99.90;;;;;;5066221;28;20062;-55
2022/03/01 05:27:37;;;;;;;30.02;16.10;;;5.40;99.90;;;;;;5066236;28;20040;-54
2022/03/01 05:30:05;;;;;;;24.80;14.75;;;5.40;99.90;;;;;;5054696;28;20029;-54
2022/03/01 05:32:33;;;;;;;25.38;14.38;;;5.40;99.90;;;;;;5052791;28;20454;-54
2022/03/01 05:34:59;;;;;;;24.45;14.15;;;5.40;99.90;;;;;;5053267;28;20025;-54
2022/03/01 05:37:24;;;;;;;23.83;14.93;;;5.40;99.90;;;;;;5053640;28;20028;-54
2022/03/01 05:39:50;;;;;;;25.02;14.07;;;5.40;99.90;;;;;;5052749;28;20025;-54
2022/03/01 05:42:16;;;;;;;26.15;14.23;;;5.40;99.90;;;;;;5053314;28;20117;-54
2022/03/01 05:44:41;;;;;;;24.70;14.18;;;5.40;99.90;;;;;;5053652;28;20123;-54
2022/03/01 05:47:07;;;;;;;21.60;13.18;;;5.40;99.90;;;;;;5053503;28;20047;-54
2022/03/01 05:49:33;;;;;;;24.80;14.05;;;5.40;99.90;;;;;;5052488;28;20075;-54
2022/03/01 05:51:59;;;;;;;22.25;13.50;;;5.40;99.90;;;;;;5053568;28;20021;-54
2022/03/01 05:54:25;;;;;;;21.67;13.30;;;5.50;99.90;;;;;;5053293;28;20491;-54
2022/03/01 05:56:51;;;;;;;22.15;13.57;;;5.50;99.90;;;;;;5052572;28;20504;-54
2022/03/01 05:59:17;;;;;;;20.92;12.63;;;5.50;99.90;;;;;;5052524;28;20549;-54
2022/03/01 06:01:42;;;;;;;22.60;14.35;;;5.50;99.90;;;;;;5053176;28;20035;-55
2022/03/01 06:04:08;;;;;;;24.98;14.65;;;5.50;99.90;;;;;;5052389;28;20021;-54
2022/03/01 06:06:33;;;;;;;26.75;15.57;;;5.60;99.90;;;;;;5052506;28;20548;-55
2022/03/01 06:08:59;;;;;;;26.52;15.60;;;5.50;99.90;;;;;;5052517;28;20134;-54
2022/03/01 06:11:25;;;;;;;27.30;15.77;;;5.60;99.90;;;;;;5052380;28;20524;-54
2022/03/01 06:13:50;;;;;;;28.35;15.32;;;5.60;99.90;;;;;;5052887;28;20017;-54
2022/03/01 06:16:16;;;;;;;24.25;14.00;;;5.60;99.90;;;;;;5052618;28;20123;-54
2022/03/01 06:18:42;;;;;;;22.70;12.93;;;5.60;99.90;;;;;;5052515;28;20084;-54
2022/03/01 06:21:09;;;;;;;24.48;13.75;;;5.60;99.90;;;;;;5051883;28;20029;-54
2022/03/01 06:23:34;;;;;;;22.10;13.10;;;5.70;99.90;;;;;;5053183;28;20032;-54
2022/03/01 06:26:00;;;;;;;27.02;13.88;;;5.70;99.90;;;;;;5052017;28;20025;-54
2022/03/01 06:28:29;;;;;;;28.38;14.63;;;5.70;99.90;;;;;;5052305;28;20101;-54
2022/03/01 06:30:55;;;;;;;30.15;16.92;;;5.60;99.90;;;;;;5051910;28;20403;-54
2022/03/01 06:33:21;;;;;;;35.28;18.40;;;5.50;99.90;;;;;;5052103;28;20078;-54
2022/03/01 06:35:47;;;;;;;35.30;19.33;;;5.40;99.90;;;;;;5052470;28;20104;-54
2022/03/01 06:38:12;;;;;;;37.78;21.98;;;5.50;99.90;;;;;;5051279;28;20025;-54
2022/03/01 06:40:41;;;;;;;37.80;20.27;;;5.60;99.90;;;;;;5052175;28;20500;-55
2022/03/01 06:43:06;;;;;;;38.58;20.23;;;5.60;99.90;;;;;;5052037;28;20033;-55
2022/03/01 06:45:32;;;;;;;43.20;22.58;;;5.60;99.90;;;;;;5051886;28;20025;-55
2022/03/01 06:47:58;;;;;;;37.22;19.95;;;5.50;99.90;;;;;;5052327;28;20041;-54
2022/03/01 06:50:25;;;;;;;35.60;18.20;;;5.50;99.90;;;;;;5051604;28;20414;-54
2022/03/01 06:52:51;;;;;;;32.40;18.80;;;5.50;99.90;;;;;;5051930;28;20390;-54
2022/03/01 06:55:16;;;;;;;33.20;18.67;;;5.50;99.90;;;;;;5052073;28;20102;-54
2022/03/01 06:57:43;;;;;;;38.65;19.15;;;5.60;99.90;;;;;;5052136;28;20454;-54
2022/03/01 07:00:10;;;;;;;38.35;21.48;;;5.60;99.90;;;;;;5051899;28;20044;-54
2022/03/01 07:02:38;;;;;;;39.67;22.58;;;5.60;99.90;;;;;;5050416;28;20037;-54
2022/03/01 07:05:06;;;;;;;41.55;23.85;;;5.60;99.90;;;;;;5051724;28;20429;-54
2022/03/01 07:07:32;;;;;;;42.03;22.45;;;5.50;99.90;;;;;;5051275;28;20048;-54
2022/03/01 07:09:57;;;;;;;43.58;23.45;;;5.50;99.90;;;;;;5049713;28;20490;-54
2022/03/01 07:12:23;;;;;;;38.17;22.20;;;5.40;99.90;;;;;;5050900;28;20457;-54
2022/03/01 07:14:49;;;;;;;35.97;20.90;;;5.40;99.90;;;;;;5051181;28;20353;-54
2022/03/01 07:17:16;;;;;;;37.75;21.88;;;5.50;99.90;;;;;;5051277;28;20028;-54
2022/03/01 07:19:42;;;;;;;37.40;20.42;;;5.50;99.90;;;;;;5050996;28;20041;-55
2022/03/01 07:22:08;;;;;;;38.13;21.33;;;5.50;99.90;;;;;;5050665;28;20542;-54
2022/03/01 07:24:33;;;;;;;39.90;21.67;;;5.50;99.90;;;;;;5051344;28;20108;-54
2022/03/01 07:26:59;;;;;;;40.28;22.08;;;5.60;99.90;;;;;;5050834;28;20108;-54
2022/03/01 07:29:25;;;;;;;38.40;21.55;;;5.60;99.90;;;;;;5050558;28;20032;-55
2022/03/01 07:31:50;;;;;;;38.08;21.20;;;5.60;99.90;;;;;;5050586;28;20119;-54
2022/03/01 07:34:16;;;;;;;39.72;20.95;;;5.70;99.90;;;;;;5051241;28;20398;-54
2022/03/01 07:36:42;;;;;;;37.80;21.33;;;5.80;99.90;;;;;;5051658;28;20369;-54
2022/03/01 07:39:07;;;;;;;34.40;19.70;;;5.90;99.90;;;;;;5050608;28;20025;-54
2022/03/01 07:41:33;;;;;;;37.22;18.65;;;6.00;99.90;;;;;;5050620;28;20036;-54
2022/03/01 07:43:59;;;;;;;35.20;20.88;;;6.10;99.90;;;;;;5050934;28;20031;-54
2022/03/01 07:46:24;;;;;;;34.92;19.85;;;6.10;99.90;;;;;;5050786;28;20784;-54
2022/03/01 07:48:50;;;;;;;33.05;18.73;;;6.30;99.90;;;;;;5050138;28;20029;-54
2022/03/01 07:51:15;;;;;;;33.13;19.30;;;6.20;99.90;;;;;;5051590;28;20021;-54
2022/03/01 07:53:41;;;;;;;29.00;17.38;;;6.30;99.90;;;;;;5047949;28;20033;-54
2022/03/01 07:56:07;;;;;;;33.50;18.48;;;6.30;99.90;;;;;;5047695;28;20444;-54
2022/03/01 07:58:33;;;;;;;26.85;16.40;;;6.30;99.90;;;;;;5050135;28;20109;-54
2022/03/01 08:00:59;;;;;;;31.25;17.48;;;6.20;99.90;;;;;;5050355;28;20075;-54
2022/03/01 08:03:24;;;;;;;32.38;17.65;;;6.30;99.90;;;;;;5049220;28;20062;-55
2022/03/01 08:05:51;;;;;;;30.58;17.10;;;6.40;99.90;;;;;;5050866;28;20057;-54
2022/03/01 08:08:16;;;;;;;29.80;16.65;;;6.50;99.90;;;;;;5050254;28;20055;-55
2022/03/01 08:10:42;;;;;;;32.45;17.63;;;6.60;99.90;;;;;;5049900;28;20104;-54
2022/03/01 08:13:07;;;;;;;28.88;17.13;;;6.60;99.90;;;;;;5066078;28;20504;-54
2022/03/01 08:15:33;;;;;;;29.90;18.00;;;6.70;99.90;;;;;;5053528;28;20540;-55
2022/03/01 08:17:59;;;;;;;28.52;16.30;;;6.70;99.90;;;;;;5053832;28;20445;-55
2022/03/01 08:20:25;;;;;;;28.17;16.02;;;6.90;99.90;;;;;;5061723;28;20107;-56
2022/03/01 08:22:52;;;;;;;26.70;16.40;;;6.90;99.90;;;;;;5068730;28;20033;-55
2022/03/01 08:25:18;;;;;;;27.27;15.98;;;6.80;99.90;;;;;;5061066;28;20025;-54
2022/03/01 08:27:44;;;;;;;28.73;16.83;;;6.70;99.90;;;;;;5056966;28;20082;-54
2022/03/01 08:30:11;;;;;;;27.73;15.98;;;6.70;99.90;;;;;;5054894;28;20025;-55
2022/03/01 08:32:37;;;;;;;26.83;15.30;;;6.80;99.90;;;;;;5052929;28;20073;-55
2022/03/01 08:35:03;;;;;;;25.38;16.00;;;6.90;99.90;;;;;;5061838;28;20485;-56
2022/03/01 08:37:29;;;;;;;28.02;16.30;;;6.80;99.90;;;;;;5071555;28;20776;-55
2022/03/01 08:39:55;;;;;;;29.40;18.02;;;6.80;99.90;;;;;;5057082;28;20111;-55
2022/03/01 08:42:20;;;;;;;25.98;15.43;;;6.90;99.90;;;;;;5058642;28;20144;-54
2022/03/01 08:44:46;;;;;;;27.17;16.38;;;7.00;99.90;;;;;;5069746;28;20108;-55
2022/03/01 08:47:11;;;;;;;25.83;15.63;;;7.00;99.90;;;;;;5052675;28;20441;-54
2022/03/01 08:49:37;;;;;;;27.13;15.90;;;7.00;99.90;;;;;;5070452;28;20044;-54
2022/03/01 08:52:03;;;;;;;25.00;15.50;;;7.00;99.90;;;;;;5066200;28;20036;-54
2022/03/01 08:54:29;;;;;;;25.75;16.40;;;6.90;99.90;;;;;;5054098;28;20432;-54
2022/03/01 08:56:54;;;;;;;28.25;17.00;;;6.80;99.90;;;;;;5053489;28;20032;-54
2022/03/01 08:59:21;;;;;;;28.25;16.65;;;6.80;99.90;;;;;;5051738;28;20059;-55
2022/03/01 09:01:46;;;;;;;27.35;17.00;;;6.90;99.90;;;;;;5053535;28;20068;-55
2022/03/01 09:04:12;;;;;;;27.08;16.50;;;6.90;99.90;;;;;;5056433;28;20061;-54
2022/03/01 09:06:37;;;;;;;28.02;16.83;;;6.90;99.90;;;;;;5073272;28;20473;-55
2022/03/01 09:09:03;;;;;;;26.23;16.13;;;7.00;99.90;;;;;;5052264;28;20056;-55
2022/03/01 09:11:29;;;;;;;23.20;14.45;;;7.10;99.90;;;;;;5053610;28;20836;-55
2022/03/01 09:13:54;;;;;;;26.42;15.82;;;7.20;99.90;;;;;;5052828;28;20036;-55
2022/03/01 09:16:20;;;;;;;26.92;15.75;;;7.10;99.90;;;;;;5052077;28;20025;-55
2022/03/01 09:18:46;;;;;;;21.83;14.98;;;7.10;99.90;;;;;;5051732;28;20037;-55
2022/03/01 09:21:11;;;;;;;24.38;14.90;;;7.20;99.90;;;;;;5054221;28;20024;-55
2022/03/01 09:23:41;;;;;;;25.23;15.10;;;7.20;99.90;;;;;;5054452;28;20122;-55
2022/03/01 09:26:06;;;;;;;24.98;14.73;;;7.20;99.90;;;;;;5052536;28;20020;-55
2022/03/01 09:28:32;;;;;;;22.00;13.70;;;7.30;99.90;;;;;;5054149;28;20025;-55
2022/03/01 09:31:01;;;;;;;22.10;14.10;;;7.40;99.90;;;;;;5061425;28;20372;-55
2022/03/01 09:33:27;;;;;;;23.13;13.85;;;7.40;99.90;;;;;;5051979;28;20098;-55
2022/03/01 09:35:53;;;;;;;21.40;13.93;;;7.40;99.90;;;;;;5057070;28;20474;-55
2022/03/01 09:38:18;;;;;;;20.50;14.10;;;7.40;99.90;;;;;;5052300;28;20036;-55
2022/03/01 09:40:48;;;;;;;25.10;15.10;;;7.40;99.90;;;;;;5052749;28;20071;-54
2022/03/01 09:43:14;;;;;;;26.80;15.30;;;7.40;99.90;;;;;;5047290;28;20044;-55
2022/03/01 09:45:39;;;;;;;27.30;15.25;;;7.40;99.90;;;;;;5052812;28;20028;-55
2022/03/01 09:48:05;;;;;;;22.90;14.90;;;7.40;99.90;;;;;;5051127;28;20025;-55
2022/03/01 09:50:31;;;;;;;19.83;12.95;;;7.50;99.90;;;;;;5052657;28;20137;-55
2022/03/01 09:52:59;;;;;;;21.67;14.25;;;7.50;99.90;;;;;;5055534;28;20084;-55
2022/03/01 09:55:26;;;;;;;21.45;14.43;;;7.50;99.90;;;;;;5050737;28;20032;-55
2022/03/01 09:57:51;;;;;;;20.75;14.10;;;7.50;99.90;;;;;;5051948;28;20052;-55
2022/03/01 10:00:17;;;;;;;23.30;14.38;;;7.30;99.90;;;;;;5051838;28;20060;-55
2022/03/01 10:02:44;;;;;;;25.58;16.08;;;7.40;99.90;;;;;;5056124;28;20535;-55
2022/03/01 10:05:12;;;;;;;26.92;14.80;;;7.40;99.90;;;;;;5050573;28;20028;-55
2022/03/01 10:07:45;;;;;;;23.40;14.25;;;7.40;99.90;;;;;;5051261;28;20066;-55
2022/03/01 10:10:16;;;;;;;24.98;15.85;;;7.40;99.90;;;;;;5051469;28;20064;-55
2022/03/01 10:12:55;;;;;;;23.85;14.75;;;7.40;99.90;;;;;;5051946;28;20502;-54
2022/03/01 10:15:28;;;;;;;25.65;15.50;;;7.40;99.90;;;;;;5051134;28;20056;-55
2022/03/01 10:17:53;;;;;;;25.55;15.05;;;7.30;99.90;;;;;;5058028;28;20024;-55
2022/03/01 10:20:20;;;;;;;22.45;13.90;;;7.30;99.90;;;;;;5064359;28;20092;-55
2022/03/01 10:22:47;;;;;;;24.60;15.10;;;7.30;99.90;;;;;;5064414;28;20497;-55
2022/03/01 10:25:15;;;;;;;26.45;15.35;;;7.20;99.90;;;;;;5067112;28;20033;-55
2022/03/01 10:27:43;;;;;;;28.50;15.88;;;7.20;99.90;;;;;;5051419;28;20378;-56
2022/03/01 10:30:09;;;;;;;25.08;15.35;;;7.20;99.90;;;;;;5059719;28;20025;-55
2022/03/01 10:32:36;;;;;;;25.02;16.33;;;7.20;99.90;;;;;;5050596;28;20092;-57
2022/03/01 10:35:09;;;;;;;24.00;16.10;;;7.20;99.90;;;;;;5051780;28;20543;-55
2022/03/01 10:37:37;;;;;;;27.67;15.57;;;7.30;99.90;;;;;;5058149;28;20078;-55
2022/03/01 10:40:18;;;;;;;29.27;15.25;;;7.30;99.90;;;;;;5054532;28;20517;-57
2022/03/01 10:42:44;;;;;;;29.10;15.18;;;7.30;99.90;;;;;;5050106;28;20025;-55
2022/03/01 10:45:11;;;;;;;28.30;16.95;;;7.30;99.90;;;;;;5051195;28;20039;-55
2022/03/01 10:47:37;;;;;;;25.40;15.63;;;7.30;99.90;;;;;;5059977;28;20029;-56
2022/03/01 10:50:07;;;;;;;25.80;15.07;;;7.40;99.90;;;;;;5058809;28;20029;-56
2022/03/01 10:52:39;;;;;;;25.60;15.23;;;7.40;99.90;;;;;;5052938;28;20226;-56
2022/03/01 10:55:06;;;;;;;27.00;15.18;;;7.30;99.90;;;;;;5049108;28;20021;-56
2022/03/01 10:57:32;;;;;;;27.92;16.15;;;7.20;99.90;;;;;;5048931;28;20037;-55
2022/03/01 10:59:58;;;;;;;28.33;16.25;;;7.20;99.90;;;;;;5027723;28;20110;-56
2022/03/01 11:02:24;;;;;;;29.98;18.45;;;7.30;99.90;;;;;;5038997;28;20099;-56
2022/03/01 11:04:50;;;;;;;32.22;19.92;;;7.30;99.90;;;;;;5051245;28;20037;-56
2022/03/01 11:07:18;;;;;;;31.52;20.30;;;7.40;99.90;;;;;;5050118;28;20096;-56
2022/03/01 11:09:44;;;;;;;31.17;18.40;;;7.50;99.90;;;;;;5050423;28;20444;-56
2022/03/01 11:12:11;;;;;;;27.73;17.30;;;7.70;99.90;;;;;;5051032;28;20021;-56
2022/03/01 11:15:04;;;;;;;28.70;17.40;;;8.00;99.90;;;;;;5050850;28;20051;-56
2022/03/01 11:17:51;;;;;;;29.25;18.00;;;8.20;99.90;;;;;;5050671;28;20082;-55
2022/03/01 11:20:27;;;;;;;30.73;17.98;;;8.60;99.90;;;;;;5050688;28;20036;-57
2022/03/01 11:22:58;;;;;;;26.02;17.25;;;8.90;99.90;;;;;;5049489;28;20385;-56
2022/03/01 11:25:27;;;;;;;26.77;17.75;;;9.30;99.90;;;;;;5050997;28;20043;-56
2022/03/01 11:28:00;;;;;;;26.63;16.15;;;9.40;99.90;;;;;;5056124;28;20021;-56
2022/03/01 11:30:33;;;;;;;30.92;17.77;;;9.40;99.90;;;;;;5052143;28;20021;-55
2022/03/01 11:32:59;;;;;;;34.28;19.27;;;9.20;99.90;;;;;;5050824;28;20482;-56
2022/03/01 11:35:31;;;;;;;42.03;23.92;;;9.30;99.90;;;;;;5060512;28;20033;-56
2022/03/01 11:38:10;;;;;;;26.33;18.25;;;9.60;99.90;;;;;;5052669;28;20079;-56
2022/03/01 11:40:39;;;;;;;26.75;16.98;;;9.60;99.90;;;;;;5060979;28;20399;-55
2022/03/01 11:43:09;;;;;;;24.33;16.25;;;9.60;99.90;;;;;;5059330;28;20052;-55
2022/03/01 11:45:36;;;;;;;26.20;17.38;;;9.70;99.90;;;;;;5055291;28;20021;-56
2022/03/01 11:48:10;;;;;;;32.33;17.95;;;9.90;99.90;;;;;;5052754;28;20040;-55
2022/03/01 11:50:43;;;;;;;27.15;17.83;;;9.90;99.90;;;;;;5055126;28;20017;-55
2022/03/01 11:53:09;;;;;;;27.75;16.33;;;10.00;99.90;;;;;;5053712;28;20017;-56
2022/03/01 11:55:49;;;;;;;26.55;16.80;;;10.30;99.90;;;;;;5062358;28;20445;-56
2022/03/01 11:58:15;;;;;;;26.05;16.85;;;10.30;99.90;;;;;;5053939;28;20032;-56
2022/03/01 12:00:42;;;;;;;28.02;17.40;;;10.20;99.90;;;;;;5056921;28;20546;-56
2022/03/01 12:03:13;;;;;;;25.75;17.52;;;10.10;99.90;;;;;;5057412;28;20048;-56
2022/03/01 12:05:41;;;;;;;27.40;17.63;;;10.20;99.90;;;;;;5054961;28;20028;-56
2022/03/01 12:08:12;;;;;;;26.63;17.10;;;10.40;99.90;;;;;;5059833;28;20064;-56
2022/03/01 12:10:38;;;;;;;26.35;17.35;;;10.50;99.90;;;;;;5058802;28;20040;-56
2022/03/01 12:13:06;;;;;;;26.25;18.05;;;10.40;99.90;;;;;;5062876;28;20033;-56
2022/03/01 12:15:41;;;;;;;31.73;18.23;;;10.20;99.90;;;;;;5055921;28;20025;-54
2022/03/01 12:18:15;;;;;;;27.35;18.55;;;10.10;99.90;;;;;;5051394;28;20031;-54
2022/03/01 12:20:46;;;;;;;31.02;18.15;;;10.30;99.90;;;;;;5048427;28;20047;-54
2022/03/01 12:23:27;;;;;;;30.23;17.77;;;10.40;99.90;;;;;;5057863;28;20509;-54
2022/03/01 12:25:53;;;;;;;25.58;17.50;;;10.50;99.90;;;;;;5054426;28;20025;-55
2022/03/01 12:28:21;;;;;;;31.15;19.45;;;10.60;99.90;;;;;;5056555;28;20440;-55
2022/03/01 12:30:47;;;;;;;28.77;18.98;;;10.80;99.90;;;;;;5060970;28;20125;-54
2022/03/01 12:33:17;;;;;;;24.45;17.42;;;10.70;99.90;;;;;;5054231;28;20140;-55
2022/03/01 12:35:54;;;;;;;30.35;18.05;;;10.90;99.90;;;;;;5052863;28;20035;-55
2022/03/01 12:38:20;;;;;;;22.55;16.10;;;10.60;99.90;;;;;;5066972;28;20049;-56